sensor_id;sensor_type;location;lat;lon;timestamp;pressure;altitude;pressure_sealevel;temperature;humidity
76478;BME280;65309;49.790;18.972;2024-02-21T00:02:33;60171.63;;;-145.46;100.00
76478;BME280;65309;49.790;18.972;2024-02-21T00:07:35;60156.91;;;-145.46;100.00
76478;BME280;65309;49.790;18.972;2024-02-21T00:12:38;60121.16;;;-145.46;100.00
76478;BME280;65309;49.790;18.972;2024-02-21T00:17:40;60129.56;;;-145.46;100.00
76478;BME280;65309;49.790;18.972;2024-02-21T00:22:43;60119.06;;;-145.46;100.00
76478;BME280;65309;49.790;18.972;2024-02-21T00:27:46;60129.56;;;-145.46;100.00
76478;BME280;65309;49.790;18.972;2024-02-21T00:32:48;60159.00;;;-145.46;100.00
76478;BME280;65309;49.790;18.972;2024-02-21T00:37:51;60156.91;;;-145.46;100.00
76478;BME280;65309;49.790;18.972;2024-02-21T00:42:54;60106.44;;;-145.46;100.00
76478;BME280;65309;49.790;18.972;2024-02-21T00:47:56;60137.97;;;-145.46;100.00
76478;BME280;65309;49.790;18.972;2024-02-21T00:52:59;60121.16;;;-145.46;100.00
76478;BME280;65309;49.790;18.972;2024-02-21T00:58:02;60150.59;;;-145.46;100.00
76478;BME280;65309;49.790;18.972;2024-02-21T01:03:05;60152.69;;;-145.46;100.00
76478;BME280;65309;49.790;18.972;2024-02-21T01:08:07;60127.47;;;-145.46;100.00
76478;BME280;65309;49.790;18.972;2024-02-21T01:13:11;60112.75;;;-145.46;100.00
76478;BME280;65309;49.790;18.972;2024-02-21T01:18:13;60135.88;;;-145.46;100.00
76478;BME280;65309;49.790;18.972;2024-02-21T01:23:15;60121.16;;;-145.46;100.00
76478;BME280;65309;49.790;18.972;2024-02-21T01:28:19;60150.59;;;-145.46;100.00
76478;BME280;65309;49.790;18.972;2024-02-21T01:33:23;60137.97;;;-145.46;100.00
76478;BME280;65309;49.790;18.972;2024-02-21T01:38:25;60125.38;;;-145.46;100.00
76478;BME280;65309;49.790;18.972;2024-02-21T01:43:29;60154.81;;;-145.46;100.00
76478;BME280;65309;49.790;18.972;2024-02-21T01:48:31;60095.94;;;-145.46;100.00
76478;BME280;65309;49.790;18.972;2024-02-21T01:53:35;60180.03;;;-145.46;100.00
76478;BME280;65309;49.790;18.972;2024-02-21T01:58:41;60116.97;;;-145.46;100.00
76478;BME280;65309;49.790;18.972;2024-02-21T02:03:45;60159.00;;;-145.46;100.00
76478;BME280;65309;49.790;18.972;2024-02-21T02:08:47;60159.00;;;-145.46;100.00
76478;BME280;65309;49.790;18.972;2024-02-21T02:13:51;60159.00;;;-145.46;100.00
76478;BME280;65309;49.790;18.972;2024-02-21T02:18:53;60161.09;;;-145.46;100.00
76478;BME280;65309;49.790;18.972;2024-02-21T02:23:58;60169.50;;;-145.46;100.00
76478;BME280;65309;49.790;18.972;2024-02-21T02:29:01;60112.75;;;-145.46;100.00
76478;BME280;65309;49.790;18.972;2024-02-21T02:34:21;60161.09;;;-145.46;100.00
76478;BME280;65309;49.790;18.972;2024-02-21T02:39:42;60161.09;;;-145.46;100.00
76478;BME280;65309;49.790;18.972;2024-02-21T02:45:02;60156.91;;;-145.46;100.00
76478;BME280;65309;49.790;18.972;2024-02-21T02:50:23;60150.59;;;-145.46;100.00
76478;BME280;65309;49.790;18.972;2024-02-21T02:55:43;60163.22;;;-145.46;100.00
76478;BME280;65309;49.790;18.972;2024-02-21T03:01:03;60112.75;;;-145.46;100.00
76478;BME280;65309;49.790;18.972;2024-02-21T03:06:23;60119.06;;;-145.46;100.00
76478;BME280;65309;49.790;18.972;2024-02-21T03:11:44;60100.13;;;-145.46;100.00
76478;BME280;65309;49.790;18.972;2024-02-21T03:16:46;60146.38;;;-145.46;100.00
76478;BME280;65309;49.790;18.972;2024-02-21T03:21:48;60125.38;;;-145.46;100.00
76478;BME280;65309;49.790;18.972;2024-02-21T03:26:53;60133.78;;;-145.46;100.00
76478;BME280;65309;49.790;18.972;2024-02-21T03:31:55;60133.78;;;-145.46;100.00
76478;BME280;65309;49.790;18.972;2024-02-21T03:36:57;60137.97;;;-145.46;100.00
76478;BME280;65309;49.790;18.972;2024-02-21T03:42:01;60123.25;;;-145.46;100.00
76478;BME280;65309;49.790;18.972;2024-02-21T03:47:06;60146.38;;;-145.46;100.00
76478;BME280;65309;49.790;18.972;2024-02-21T03:52:08;60163.22;;;-145.46;100.00
76478;BME280;65309;49.790;18.972;2024-02-21T03:57:12;60095.94;;;-145.46;100.00
76478;BME280;65309;49.790;18.972;2024-02-21T04:02:14;60146.38;;;-145.46;100.00
76478;BME280;65309;49.790;18.972;2024-02-21T04:07:17;60142.19;;;-145.46;100.00
76478;BME280;65309;49.790;18.972;2024-02-21T04:12:20;60163.22;;;-145.46;100.00
76478;BME280;65309;49.790;18.972;2024-02-21T04:17:22;60129.56;;;-145.46;100.00
76478;BME280;65309;49.790;18.972;2024-02-21T04:22:25;60133.78;;;-145.46;100.00
76478;BME280;65309;49.790;18.972;2024-02-21T04:27:28;60140.09;;;-145.46;100.00
76478;BME280;65309;49.790;18.972;2024-02-21T04:32:30;60131.69;;;-145.46;100.00
76478;BME280;65309;49.790;18.972;2024-02-21T04:37:33;60125.38;;;-145.46;100.00
76478;BME280;65309;49.790;18.972;2024-02-21T04:42:36;60142.19;;;-145.46;100.00
76478;BME280;65309;49.790;18.972;2024-02-21T04:47:38;60133.78;;;-145.46;100.00
76478;BME280;65309;49.790;18.972;2024-02-21T04:52:40;60135.88;;;-145.46;100.00
76478;BME280;65309;49.790;18.972;2024-02-21T04:57:44;60137.97;;;-145.46;100.00
76478;BME280;65309;49.790;18.972;2024-02-21T05:02:46;60159.00;;;-145.46;100.00
76478;BME280;65309;49.790;18.972;2024-02-21T05:07:48;60121.16;;;-145.46;100.00
76478;BME280;65309;49.790;18.972;2024-02-21T05:12:52;60159.00;;;-145.46;100.00
76478;BME280;65309;49.790;18.972;2024-02-21T05:17:54;60171.63;;;-145.46;100.00
76478;BME280;65309;49.790;18.972;2024-02-21T05:22:56;60146.38;;;-145.46;100.00
76478;BME280;65309;49.790;18.972;2024-02-21T05:28:00;60125.38;;;-145.46;100.00
76478;BME280;65309;49.790;18.972;2024-02-21T05:33:05;60159.00;;;-145.46;100.00
76478;BME280;65309;49.790;18.972;2024-02-21T05:38:07;60146.38;;;-145.46;100.00
76478;BME280;65309;49.790;18.972;2024-02-21T05:43:15;60165.31;;;-145.46;100.00
76478;BME280;65309;49.790;18.972;2024-02-21T05:48:17;60121.16;;;-145.46;100.00
76478;BME280;65309;49.790;18.972;2024-02-21T05:53:19;60142.19;;;-145.46;100.00
76478;BME280;65309;49.790;18.972;2024-02-21T05:58:23;60129.56;;;-145.46;100.00
76478;BME280;65309;49.790;18.972;2024-02-21T06:03:25;60125.38;;;-145.46;100.00
76478;BME280;65309;49.790;18.972;2024-02-21T06:08:28;60173.72;;;-145.46;100.00
76478;BME280;65309;49.790;18.972;2024-02-21T06:13:31;60173.72;;;-145.46;100.00
76478;BME280;65309;49.790;18.972;2024-02-21T06:18:35;60159.00;;;-145.46;100.00
76478;BME280;65309;49.790;18.972;2024-02-21T06:23:38;60121.16;;;-145.46;100.00
76478;BME280;65309;49.790;18.972;2024-02-21T06:28:41;60144.28;;;-145.46;100.00
76478;BME280;65309;49.790;18.972;2024-02-21T06:33:44;60125.38;;;-145.46;100.00
76478;BME280;65309;49.790;18.972;2024-02-21T06:38:47;60127.47;;;-145.46;100.00
76478;BME280;65309;49.790;18.972;2024-02-21T06:43:50;60137.97;;;-145.46;100.00
76478;BME280;65309;49.790;18.972;2024-02-21T06:48:52;60142.19;;;-145.46;100.00
76478;BME280;65309;49.790;18.972;2024-02-21T06:53:55;60142.19;;;-145.46;100.00
76478;BME280;65309;49.790;18.972;2024-02-21T06:58:58;60140.09;;;-145.46;100.00
76478;BME280;65309;49.790;18.972;2024-02-21T07:04:01;60129.56;;;-145.46;100.00
76478;BME280;65309;49.790;18.972;2024-02-21T07:09:03;60129.56;;;-145.46;100.00
76478;BME280;65309;49.790;18.972;2024-02-21T07:14:06;60137.97;;;-145.46;100.00
76478;BME280;65309;49.790;18.972;2024-02-21T07:19:09;60091.72;;;-145.46;100.00
76478;BME280;65309;49.790;18.972;2024-02-21T07:24:11;60123.25;;;-145.46;100.00
76478;BME280;65309;49.790;18.972;2024-02-21T07:29:15;60127.47;;;-145.46;100.00
76478;BME280;65309;49.790;18.972;2024-02-21T07:34:17;60127.47;;;-145.46;100.00
76478;BME280;65309;49.790;18.972;2024-02-21T07:39:20;60116.97;;;-145.46;100.00
76478;BME280;65309;49.790;18.972;2024-02-21T07:44:23;60110.66;;;-145.46;96.41
76478;BME280;65309;49.790;18.972;2024-02-21T07:49:25;60116.97;;;-145.46;99.32
76478;BME280;65309;49.790;18.972;2024-02-21T07:54:28;60104.34;;;-145.46;100.00
76478;BME280;65309;49.790;18.972;2024-02-21T07:59:31;60110.66;;;-145.46;100.00
76478;BME280;65309;49.790;18.972;2024-02-21T08:04:33;60133.78;;;-145.46;98.94
76478;BME280;65309;49.790;18.972;2024-02-21T08:09:36;60144.28;;;-145.46;100.00
76478;BME280;65309;49.790;18.972;2024-02-21T08:14:41;60112.75;;;-145.46;99.21
76478;BME280;65309;49.790;18.972;2024-02-21T08:19:43;60148.50;;;-145.46;100.00
76478;BME280;65309;49.790;18.972;2024-02-21T08:24:45;60129.56;;;-145.46;100.00
76478;BME280;65309;49.790;18.972;2024-02-21T08:29:49;60104.34;;;-145.46;100.00
76478;BME280;65309;49.790;18.972;2024-02-21T08:34:51;60133.78;;;-145.46;100.00
76478;BME280;65309;49.790;18.972;2024-02-21T08:39:53;60140.09;;;-145.46;99.83
76478;BME280;65309;49.790;18.972;2024-02-21T08:44:57;60137.97;;;-145.46;99.41
76478;BME280;65309;49.790;18.972;2024-02-21T08:49:59;60083.31;;;-145.46;98.32
76478;BME280;65309;49.790;18.972;2024-02-21T08:55:15;60116.97;;;-145.46;97.09
76478;BME280;65309;49.790;18.972;2024-02-21T09:00:20;60125.38;;;-145.46;99.14
76478;BME280;65309;49.790;18.972;2024-02-21T09:05:26;60098.03;;;-145.46;97.89
76478;BME280;65309;49.790;18.972;2024-02-21T09:10:29;60110.66;;;-145.46;98.20
76478;BME280;65309;49.790;18.972;2024-02-21T09:15:32;60123.25;;;-145.46;100.00
76478;BME280;65309;49.790;18.972;2024-02-21T09:20:36;60112.75;;;-145.46;97.09
76478;BME280;65309;49.790;18.972;2024-02-21T09:25:38;60100.13;;;-145.46;98.74
76478;BME280;65309;49.790;18.972;2024-02-21T09:30:42;60114.84;;;-145.46;97.65
76478;BME280;65309;49.790;18.972;2024-02-21T09:35:44;60112.75;;;-145.46;94.01
76478;BME280;65309;49.790;18.972;2024-02-21T09:40:46;60087.53;;;-145.46;95.28
76478;BME280;65309;49.790;18.972;2024-02-21T09:45:54;60144.28;;;-145.46;91.47
76478;BME280;65309;49.790;18.972;2024-02-21T09:50:59;60104.34;;;-145.46;91.93
76478;BME280;65309;49.790;18.972;2024-02-21T09:56:01;60091.72;;;-145.46;92.26
76478;BME280;65309;49.790;18.972;2024-02-21T10:01:05;60060.19;;;-145.46;92.40
76478;BME280;65309;49.790;18.972;2024-02-21T10:06:26;60085.44;;;-145.46;93.25
76478;BME280;65309;49.790;18.972;2024-02-21T10:11:28;60125.38;;;-145.46;88.80
76478;BME280;65309;49.790;18.972;2024-02-21T10:16:32;60112.75;;;-145.46;88.18
76478;BME280;65309;49.790;18.972;2024-02-21T10:21:35;60091.72;;;-145.46;88.82
76478;BME280;65309;49.790;18.972;2024-02-21T10:26:37;60112.75;;;-145.46;88.86
76478;BME280;65309;49.790;18.972;2024-02-21T10:31:41;60074.91;;;-145.46;87.63
76478;BME280;65309;49.790;18.972;2024-02-21T10:36:43;60108.56;;;-145.46;88.02
76478;BME280;65309;49.790;18.972;2024-02-21T10:41:45;60037.06;;;-145.46;88.76
76478;BME280;65309;49.790;18.972;2024-02-21T10:46:49;60091.72;;;-145.46;86.34
76478;BME280;65309;49.790;18.972;2024-02-21T10:51:54;60072.81;;;-145.46;83.73
76478;BME280;65309;49.790;18.972;2024-02-21T10:57:00;60087.53;;;-145.46;84.08
76478;BME280;65309;49.790;18.972;2024-02-21T11:02:07;60066.50;;;-145.46;78.98
76478;BME280;65309;49.790;18.972;2024-02-21T11:07:09;60095.94;;;-145.46;82.04
76478;BME280;65309;49.790;18.972;2024-02-21T11:12:20;60079.13;;;-145.46;78.40
76478;BME280;65309;49.790;18.972;2024-02-21T11:17:24;60051.78;;;-145.46;79.47
76478;BME280;65309;49.790;18.972;2024-02-21T11:22:29;60087.53;;;-145.46;80.94
76478;BME280;65309;49.790;18.972;2024-02-21T11:27:33;60133.78;;;-145.46;78.96
76478;BME280;65309;49.790;18.972;2024-02-21T11:32:37;60100.13;;;-145.46;80.14
76478;BME280;65309;49.790;18.972;2024-02-21T11:37:39;60102.25;;;-145.46;84.47
76478;BME280;65309;49.790;18.972;2024-02-21T11:42:45;60049.69;;;-145.46;82.38
76478;BME280;65309;49.790;18.972;2024-02-21T11:47:48;60104.34;;;-145.46;84.33
76478;BME280;65309;49.790;18.972;2024-02-21T11:52:54;60091.72;;;-145.46;84.40
76478;BME280;65309;49.790;18.972;2024-02-21T11:57:56;60135.88;;;-145.46;87.81
76478;BME280;65309;49.790;18.972;2024-02-21T12:03:00;60116.97;;;-145.46;88.20
76478;BME280;65309;49.790;18.972;2024-02-21T12:08:05;60095.94;;;-145.46;84.84
76478;BME280;65309;49.790;18.972;2024-02-21T12:13:07;60154.81;;;-145.46;84.03
76478;BME280;65309;49.790;18.972;2024-02-21T12:18:11;60087.53;;;-145.46;91.10
76478;BME280;65309;49.790;18.972;2024-02-21T12:23:14;60104.34;;;-145.46;86.91
76478;BME280;65309;49.790;18.972;2024-02-21T12:28:16;60089.63;;;-145.46;86.83
76478;BME280;65309;49.790;18.972;2024-02-21T12:33:21;60108.56;;;-145.46;88.23
76478;BME280;65309;49.790;18.972;2024-02-21T12:38:23;60091.72;;;-145.46;89.53
76478;BME280;65309;49.790;18.972;2024-02-21T12:43:25;60125.38;;;-145.46;89.06
76478;BME280;65309;49.790;18.972;2024-02-21T12:48:29;60098.03;;;-145.46;91.67
76478;BME280;65309;49.790;18.972;2024-02-21T12:53:31;60110.66;;;-145.46;93.74
76478;BME280;65309;49.790;18.972;2024-02-21T12:58:35;60112.75;;;-145.46;96.17
76478;BME280;65309;49.790;18.972;2024-02-21T13:03:39;60125.38;;;-145.46;97.45
76478;BME280;65309;49.790;18.972;2024-02-21T13:08:41;60116.97;;;-145.46;100.00
76478;BME280;65309;49.790;18.972;2024-02-21T13:13:43;60129.56;;;-145.46;100.00
76478;BME280;65309;49.790;18.972;2024-02-21T13:18:47;60077.00;;;-145.46;100.00
76478;BME280;65309;49.790;18.972;2024-02-21T13:23:50;60110.66;;;-145.46;100.00
76478;BME280;65309;49.790;18.972;2024-02-21T13:28:52;60182.13;;;-145.46;100.00
76478;BME280;65309;49.790;18.972;2024-02-21T13:33:56;60119.06;;;-145.46;100.00
76478;BME280;65309;49.790;18.972;2024-02-21T13:38:58;60104.34;;;-145.46;100.00
76478;BME280;65309;49.790;18.972;2024-02-21T13:44:00;60167.41;;;-145.46;100.00
76478;BME280;65309;49.790;18.972;2024-02-21T13:49:05;60104.34;;;-145.46;100.00
76478;BME280;65309;49.790;18.972;2024-02-21T13:54:10;60125.38;;;-145.46;100.00
76478;BME280;65309;49.790;18.972;2024-02-21T13:59:13;60121.16;;;-145.46;100.00
76478;BME280;65309;49.790;18.972;2024-02-21T14:04:17;60121.16;;;-145.46;100.00
76478;BME280;65309;49.790;18.972;2024-02-21T14:09:19;60121.16;;;-145.46;100.00
76478;BME280;65309;49.790;18.972;2024-02-21T14:14:21;60131.69;;;-145.46;100.00
76478;BME280;65309;49.790;18.972;2024-02-21T14:19:24;60133.78;;;-145.46;100.00
76478;BME280;65309;49.790;18.972;2024-02-21T14:24:27;60163.22;;;-145.46;100.00
76478;BME280;65309;49.790;18.972;2024-02-21T14:29:29;60137.97;;;-145.46;100.00
76478;BME280;65309;49.790;18.972;2024-02-21T14:34:33;60159.00;;;-145.46;100.00
76478;BME280;65309;49.790;18.972;2024-02-21T14:39:35;60121.16;;;-145.46;100.00
76478;BME280;65309;49.790;18.972;2024-02-21T14:44:37;60087.53;;;-145.46;100.00
76478;BME280;65309;49.790;18.972;2024-02-21T14:49:41;60144.28;;;-145.46;100.00
76478;BME280;65309;49.790;18.972;2024-02-21T14:54:43;60110.66;;;-145.46;100.00
76478;BME280;65309;49.790;18.972;2024-02-21T14:59:50;60127.47;;;-145.46;100.00
76478;BME280;65309;49.790;18.972;2024-02-21T15:04:59;60123.25;;;-145.46;100.00
76478;BME280;65309;49.790;18.972;2024-02-21T15:10:01;60148.50;;;-145.46;100.00
76478;BME280;65309;49.790;18.972;2024-02-21T15:15:05;60177.94;;;-145.46;100.00
76478;BME280;65309;49.790;18.972;2024-02-21T15:20:09;60146.38;;;-145.46;100.00
76478;BME280;65309;49.790;18.972;2024-02-21T15:25:13;60137.97;;;-145.46;100.00
76478;BME280;65309;49.790;18.972;2024-02-21T15:30:17;60125.38;;;-145.46;100.00
76478;BME280;65309;49.790;18.972;2024-02-21T15:35:22;60167.41;;;-145.46;100.00
76478;BME280;65309;49.790;18.972;2024-02-21T15:40:24;60140.09;;;-145.46;100.00
76478;BME280;65309;49.790;18.972;2024-02-21T15:45:26;60163.22;;;-145.46;100.00
76478;BME280;65309;49.790;18.972;2024-02-21T15:50:30;60142.19;;;-145.46;100.00
76478;BME280;65309;49.790;18.972;2024-02-21T15:55:32;60159.00;;;-145.46;100.00
76478;BME280;65309;49.790;18.972;2024-02-21T16:01:33;70918.97;;;-145.47;100.00
76478;BME280;65309;49.790;18.972;2024-02-21T16:06:56;70918.97;;;-145.47;100.00
76478;BME280;65309;49.790;18.972;2024-02-21T16:12:50;70918.97;;;-145.47;100.00
76478;BME280;65309;49.790;18.972;2024-02-21T16:18:51;70918.97;;;-145.47;100.00
76478;BME280;65309;49.790;18.972;2024-02-21T16:24:04;70918.97;;;-145.47;100.00
76478;BME280;65309;49.790;18.972;2024-02-21T16:29:07;70918.97;;;-145.47;100.00
76478;BME280;65309;49.790;18.972;2024-02-21T16:34:10;70918.97;;;-145.47;100.00
76478;BME280;65309;49.790;18.972;2024-02-21T16:39:14;70918.97;;;-145.47;100.00
76478;BME280;65309;49.790;18.972;2024-02-21T16:44:16;70918.97;;;-145.47;100.00
76478;BME280;65309;49.790;18.972;2024-02-21T16:49:23;70918.97;;;-145.47;100.00
76478;BME280;65309;49.790;18.972;2024-02-21T16:54:26;70918.97;;;-145.47;100.00
76478;BME280;65309;49.790;18.972;2024-02-21T16:59:28;70918.97;;;-145.47;100.00
76478;BME280;65309;49.790;18.972;2024-02-21T17:04:31;70918.97;;;-145.47;100.00
76478;BME280;65309;49.790;18.972;2024-02-21T17:09:35;70918.97;;;-145.47;100.00
76478;BME280;65309;49.790;18.972;2024-02-21T17:14:38;70918.97;;;-145.47;100.00
76478;BME280;65309;49.790;18.972;2024-02-21T17:19:41;70918.97;;;-145.47;100.00
76478;BME280;65309;49.790;18.972;2024-02-21T17:24:45;70918.97;;;-145.47;100.00
76478;BME280;65309;49.790;18.972;2024-02-21T17:29:47;70918.97;;;-145.47;100.00
76478;BME280;65309;49.790;18.972;2024-02-21T17:34:49;70918.97;;;-145.47;100.00
76478;BME280;65309;49.790;18.972;2024-02-21T17:39:53;70918.97;;;-145.47;100.00
76478;BME280;65309;49.790;18.972;2024-02-21T17:44:55;70918.97;;;-145.47;100.00
76478;BME280;65309;49.790;18.972;2024-02-21T17:49:58;70918.97;;;-145.47;100.00
76478;BME280;65309;49.790;18.972;2024-02-21T17:55:03;70918.97;;;-145.47;100.00
76478;BME280;65309;49.790;18.972;2024-02-21T18:00:09;70918.97;;;-145.47;100.00
76478;BME280;65309;49.790;18.972;2024-02-21T18:05:13;70918.97;;;-145.47;100.00
76478;BME280;65309;49.790;18.972;2024-02-21T18:10:21;70918.97;;;-145.47;100.00
76478;BME280;65309;49.790;18.972;2024-02-21T18:15:24;70918.97;;;-145.47;100.00
76478;BME280;65309;49.790;18.972;2024-02-21T18:20:27;70918.97;;;-145.47;100.00
76478;BME280;65309;49.790;18.972;2024-02-21T18:25:30;70918.97;;;-145.47;100.00
76478;BME280;65309;49.790;18.972;2024-02-21T18:30:33;70918.97;;;-145.47;100.00
76478;BME280;65309;49.790;18.972;2024-02-21T18:35:35;70918.97;;;-145.47;100.00
76478;BME280;65309;49.790;18.972;2024-02-21T18:40:38;70918.97;;;-145.47;100.00
76478;BME280;65309;49.790;18.972;2024-02-21T18:45:41;70918.97;;;-145.47;100.00
76478;BME280;65309;49.790;18.972;2024-02-21T18:50:43;70918.97;;;-145.47;100.00
76478;BME280;65309;49.790;18.972;2024-02-21T18:55:47;70918.97;;;-145.47;100.00
76478;BME280;65309;49.790;18.972;2024-02-21T19:00:49;70918.97;;;-145.47;100.00
76478;BME280;65309;49.790;18.972;2024-02-21T19:05:52;70918.97;;;-145.47;100.00
76478;BME280;65309;49.790;18.972;2024-02-21T19:10:55;70918.97;;;-145.47;100.00
76478;BME280;65309;49.790;18.972;2024-02-21T19:15:58;70918.97;;;-145.47;100.00
76478;BME280;65309;49.790;18.972;2024-02-21T19:21:00;70918.97;;;-145.47;100.00
76478;BME280;65309;49.790;18.972;2024-02-21T19:26:04;70918.97;;;-145.47;100.00
76478;BME280;65309;49.790;18.972;2024-02-21T19:31:10;70918.97;;;-145.47;100.00
76478;BME280;65309;49.790;18.972;2024-02-21T19:36:14;70918.97;;;-145.47;100.00
76478;BME280;65309;49.790;18.972;2024-02-21T19:41:17;70918.97;;;-145.47;100.00
76478;BME280;65309;49.790;18.972;2024-02-21T19:46:20;70918.97;;;-145.47;100.00
76478;BME280;65309;49.790;18.972;2024-02-21T19:51:23;70918.97;;;-145.47;100.00
76478;BME280;65309;49.790;18.972;2024-02-21T19:56:29;70918.97;;;-145.47;100.00
76478;BME280;65309;49.790;18.972;2024-02-21T20:02:07;70918.97;;;-145.47;100.00
76478;BME280;65309;49.790;18.972;2024-02-21T20:07:09;70918.97;;;-145.47;100.00
76478;BME280;65309;49.790;18.972;2024-02-21T20:12:12;70918.97;;;-145.47;100.00
76478;BME280;65309;49.790;18.972;2024-02-21T20:17:17;70918.97;;;-145.47;100.00
76478;BME280;65309;49.790;18.972;2024-02-21T20:22:19;70918.97;;;-145.47;100.00
76478;BME280;65309;49.790;18.972;2024-02-21T20:27:23;70918.97;;;-145.47;100.00
76478;BME280;65309;49.790;18.972;2024-02-21T20:32:26;70918.97;;;-145.47;100.00
76478;BME280;65309;49.790;18.972;2024-02-21T20:37:28;70918.97;;;-145.47;100.00
76478;BME280;65309;49.790;18.972;2024-02-21T20:42:31;70918.97;;;-145.47;100.00
76478;BME280;65309;49.790;18.972;2024-02-21T20:47:34;70918.97;;;-145.47;100.00
76478;BME280;65309;49.790;18.972;2024-02-21T20:52:36;70918.97;;;-145.47;100.00
76478;BME280;65309;49.790;18.972;2024-02-21T20:57:40;70918.97;;;-145.47;100.00
76478;BME280;65309;49.790;18.972;2024-02-21T21:02:43;70918.97;;;-145.47;100.00
76478;BME280;65309;49.790;18.972;2024-02-21T21:07:46;70918.97;;;-145.47;100.00
76478;BME280;65309;49.790;18.972;2024-02-21T21:12:50;70918.97;;;-145.47;100.00
76478;BME280;65309;49.790;18.972;2024-02-21T21:17:52;70918.97;;;-145.47;100.00
76478;BME280;65309;49.790;18.972;2024-02-21T21:22:55;70918.97;;;-145.47;100.00
76478;BME280;65309;49.790;18.972;2024-02-21T21:27:59;70918.97;;;-145.47;100.00
76478;BME280;65309;49.790;18.972;2024-02-21T21:33:01;70918.97;;;-145.47;100.00
76478;BME280;65309;49.790;18.972;2024-02-21T21:38:06;70918.97;;;-145.47;100.00
76478;BME280;65309;49.790;18.972;2024-02-21T21:43:09;70918.97;;;-145.47;100.00
76478;BME280;65309;49.790;18.972;2024-02-21T21:48:12;70918.97;;;-145.47;100.00
76478;BME280;65309;49.790;18.972;2024-02-21T21:53:14;70918.97;;;-145.47;100.00
76478;BME280;65309;49.790;18.972;2024-02-21T21:58:18;70918.97;;;-145.47;100.00
76478;BME280;65309;49.790;18.972;2024-02-21T22:03:20;70918.97;;;-145.47;100.00
76478;BME280;65309;49.790;18.972;2024-02-21T22:08:22;70918.97;;;-145.47;100.00
76478;BME280;65309;49.790;18.972;2024-02-21T22:13:26;70918.97;;;-145.47;100.00
76478;BME280;65309;49.790;18.972;2024-02-21T22:18:28;70918.97;;;-145.47;100.00
76478;BME280;65309;49.790;18.972;2024-02-21T22:23:34;70918.97;;;-145.47;100.00
76478;BME280;65309;49.790;18.972;2024-02-21T22:28:42;70918.97;;;-145.47;100.00
76478;BME280;65309;49.790;18.972;2024-02-21T22:33:46;70918.97;;;-145.47;100.00
76478;BME280;65309;49.790;18.972;2024-02-21T22:38:48;70918.97;;;-145.47;100.00
76478;BME280;65309;49.790;18.972;2024-02-21T22:43:52;70918.97;;;-145.47;100.00
76478;BME280;65309;49.790;18.972;2024-02-21T22:48:55;70918.97;;;-145.47;100.00
76478;BME280;65309;49.790;18.972;2024-02-21T22:53:57;70918.97;;;-145.47;100.00
76478;BME280;65309;49.790;18.972;2024-02-21T22:59:00;70918.97;;;-145.47;100.00
76478;BME280;65309;49.790;18.972;2024-02-21T23:04:03;70918.97;;;-145.47;100.00
76478;BME280;65309;49.790;18.972;2024-02-21T23:09:07;70918.97;;;-145.47;100.00
76478;BME280;65309;49.790;18.972;2024-02-21T23:14:11;70918.97;;;-145.47;100.00
76478;BME280;65309;49.790;18.972;2024-02-21T23:19:13;70918.97;;;-145.47;100.00
76478;BME280;65309;49.790;18.972;2024-02-21T23:24:16;70918.97;;;-145.47;100.00
76478;BME280;65309;49.790;18.972;2024-02-21T23:29:19;70918.97;;;-145.47;100.00
76478;BME280;65309;49.790;18.972;2024-02-21T23:34:21;70918.97;;;-145.47;100.00
76478;BME280;65309;49.790;18.972;2024-02-21T23:39:24;70918.97;;;-145.47;100.00
76478;BME280;65309;49.790;18.972;2024-02-21T23:44:27;70918.97;;;-145.47;100.00
76478;BME280;65309;49.790;18.972;2024-02-21T23:49:29;70918.97;;;-145.47;100.00
76478;BME280;65309;49.790;18.972;2024-02-21T23:54:32;70918.97;;;-145.47;100.00
76478;BME280;65309;49.790;18.972;2024-02-21T23:59:35;70918.97;;;-145.47;100.00
